createdAt,value
2018-05-23T00:02:12.638Z,7.27
2018-05-23T00:04:40.910Z,8.70
2018-05-23T00:07:09.202Z,7.67
2018-05-23T00:09:37.475Z,7.63
2018-05-23T00:12:05.828Z,8.27
2018-05-23T00:14:34.057Z,8.00
2018-05-23T00:17:02.356Z,7.97
2018-05-23T00:19:30.618Z,6.93
2018-05-23T00:21:58.897Z,9.30
2018-05-23T00:24:27.183Z,10.87
2018-05-23T00:26:55.458Z,9.70
2018-05-23T00:29:23.736Z,8.10
2018-05-23T00:31:51.998Z,7.53
2018-05-23T00:34:20.275Z,8.10
2018-05-23T00:36:48.658Z,7.57
2018-05-23T00:39:16.926Z,7.40
2018-05-23T00:41:45.255Z,8.93
2018-05-23T00:44:13.519Z,8.20
2018-05-23T00:46:41.790Z,7.53
2018-05-23T00:49:10.062Z,10.93
2018-05-23T00:51:38.341Z,11.10
2018-05-23T00:54:06.618Z,9.23
2018-05-23T00:56:34.890Z,11.43
2018-05-23T00:59:03.175Z,9.70
2018-05-23T01:01:32.115Z,10.23
2018-05-23T01:04:00.379Z,14.33
2018-05-23T01:06:28.655Z,12.07
2018-05-23T01:08:56.937Z,13.47
2018-05-23T01:11:25.229Z,14.27
2018-05-23T01:13:53.507Z,13.23
2018-05-23T01:16:21.790Z,12.27
2018-05-23T01:18:50.067Z,13.67
2018-05-23T01:21:18.358Z,12.17
2018-05-23T01:23:46.639Z,12.27
2018-05-23T01:26:14.910Z,13.97
2018-05-23T01:28:43.202Z,13.37
2018-05-23T01:31:11.478Z,13.50
2018-05-23T01:33:39.770Z,11.67
2018-05-23T01:36:08.046Z,16.63
2018-05-23T01:38:36.334Z,12.63
2018-05-23T01:41:04.618Z,15.17
2018-05-23T01:43:32.902Z,14.13
2018-05-23T01:46:01.198Z,17.67
2018-05-23T01:48:41.145Z,24.50
2018-05-23T01:51:09.438Z,18.40
2018-05-23T01:53:37.721Z,23.90
2018-05-23T01:56:06.111Z,19.77
2018-05-23T01:58:34.307Z,18.57
2018-05-23T02:01:02.634Z,18.17
2018-05-23T02:03:30.898Z,17.60
2018-05-23T02:05:59.182Z,17.90
2018-05-23T02:08:27.470Z,20.90
2018-05-23T02:10:55.753Z,18.40
2018-05-23T02:13:24.054Z,23.13
2018-05-23T02:15:52.333Z,19.53
2018-05-23T02:18:20.709Z,24.47
2018-05-23T02:20:48.997Z,32.37
2018-05-23T02:23:17.282Z,26.90
2018-05-23T02:25:45.578Z,29.63
2018-05-23T02:28:13.865Z,27.53
2018-05-23T02:30:42.146Z,27.73
2018-05-23T02:33:10.439Z,29.50
2018-05-23T02:35:38.723Z,29.90
2018-05-23T02:38:07.035Z,32.13
2018-05-23T02:40:35.327Z,28.40
2018-05-23T02:43:03.627Z,27.17
2018-05-23T02:45:31.928Z,31.10
2018-05-23T02:48:00.206Z,32.90
2018-05-23T02:50:28.510Z,35.73
2018-05-23T02:52:56.793Z,27.97
2018-05-23T02:55:25.071Z,33.63
2018-05-23T02:57:53.362Z,36.73
2018-05-23T03:00:21.650Z,32.50
2018-05-23T03:02:49.979Z,28.93
2018-05-23T03:05:18.240Z,39.63
2018-05-23T03:07:46.524Z,31.90
2018-05-23T03:10:14.812Z,32.83
2018-05-23T03:12:43.095Z,31.97
2018-05-23T03:15:11.403Z,35.63
2018-05-23T03:17:39.698Z,33.17
2018-05-23T03:20:07.999Z,31.40
2018-05-23T03:22:36.297Z,31.57
2018-05-23T03:25:04.578Z,26.53
2018-05-23T03:27:32.885Z,30.13
2018-05-23T03:30:01.166Z,36.13
2018-05-23T03:32:29.447Z,35.63
2018-05-23T03:34:57.814Z,32.03
2018-05-23T03:37:26.094Z,33.47
2018-05-23T03:39:55.110Z,29.53
2018-05-23T03:42:26.109Z,40.90
2018-05-23T03:44:54.403Z,31.77
2018-05-23T03:47:22.689Z,42.00
2018-05-23T03:49:50.974Z,34.63
2018-05-23T03:52:19.713Z,36.70
2018-05-23T03:54:47.996Z,30.57
2018-05-23T03:57:16.297Z,26.03
2018-05-23T03:59:56.354Z,29.23
2018-05-23T04:02:36.319Z,33.27
2018-05-23T04:05:16.624Z,31.57
2018-05-23T04:07:44.917Z,32.63
2018-05-23T04:10:13.202Z,36.57
2018-05-23T04:12:41.482Z,32.07
2018-05-23T04:15:09.767Z,35.30
2018-05-23T04:17:38.890Z,32.63
2018-05-23T04:20:07.370Z,36.77
2018-05-23T04:22:35.660Z,31.77
2018-05-23T04:25:03.947Z,29.07
2018-05-23T04:27:32.240Z,35.37
2018-05-23T04:30:00.525Z,36.33
2018-05-23T04:32:28.822Z,33.03
2018-05-23T04:34:57.101Z,29.77
2018-05-23T04:37:25.382Z,34.70
2018-05-23T04:39:53.677Z,28.60
2018-05-23T04:42:21.972Z,30.80
2018-05-23T04:44:50.274Z,29.53
2018-05-23T04:47:18.555Z,31.37
2018-05-23T04:49:46.834Z,33.30
2018-05-23T04:52:15.130Z,38.53
2018-05-23T04:54:43.627Z,34.83
2018-05-23T04:57:11.934Z,37.73
2018-05-23T04:59:40.230Z,35.83
2018-05-23T05:02:08.522Z,35.40
2018-05-23T05:04:36.805Z,38.67
2018-05-23T05:07:05.118Z,40.77
2018-05-23T05:09:33.418Z,42.53
2018-05-23T05:12:01.704Z,39.87
2018-05-23T05:14:29.995Z,46.77
2018-05-23T05:16:58.286Z,42.23
2018-05-23T05:19:26.588Z,41.07
2018-05-23T05:21:54.870Z,41.17
2018-05-23T05:24:23.154Z,44.60
2018-05-23T05:26:51.442Z,43.70
2018-05-23T05:29:19.759Z,48.40
2018-05-23T05:31:48.124Z,46.50
2018-05-23T05:34:16.343Z,40.03
2018-05-23T05:36:44.622Z,42.60
2018-05-23T05:39:12.902Z,40.03
2018-05-23T05:41:41.206Z,37.50
2018-05-23T05:44:09.528Z,40.30
2018-05-23T05:46:37.810Z,36.77
2018-05-23T05:49:06.116Z,44.57
2018-05-23T05:51:34.397Z,46.13
2018-05-23T05:54:02.694Z,39.90
2018-05-23T05:56:31.003Z,48.03
2018-05-23T05:58:59.282Z,48.60
2018-05-23T06:01:27.570Z,43.53
2018-05-23T06:03:56.766Z,45.87
2018-05-23T06:06:25.107Z,41.47
2018-05-23T06:08:53.351Z,55.73
2018-05-23T06:11:21.627Z,42.13
2018-05-23T06:13:49.921Z,43.43
2018-05-23T06:16:18.287Z,42.90
2018-05-23T06:18:46.590Z,41.70
2018-05-23T06:21:14.874Z,36.13
2018-05-23T06:23:43.178Z,42.37
2018-05-23T06:26:11.462Z,43.83
2018-05-23T06:28:39.742Z,44.87
2018-05-23T06:31:08.074Z,41.17
2018-05-23T06:33:36.398Z,48.03
2018-05-23T06:36:04.677Z,41.83
2018-05-23T06:38:32.973Z,50.40
2018-05-23T06:41:01.266Z,50.17
2018-05-23T06:43:29.658Z,49.73
2018-05-23T06:45:58.138Z,44.33
2018-05-23T06:48:26.391Z,47.33
2018-05-23T06:50:54.714Z,52.00
2018-05-23T06:53:23.020Z,41.57
2018-05-23T06:55:51.306Z,53.07
2018-05-23T06:58:19.634Z,51.03
2018-05-23T07:00:47.917Z,52.53
2018-05-23T07:03:16.259Z,49.50
2018-05-23T07:05:44.577Z,56.80
2018-05-23T07:08:12.876Z,47.83
2018-05-23T07:10:41.175Z,54.03
2018-05-23T07:13:09.454Z,54.63
2018-05-23T07:15:37.753Z,61.07
2018-05-23T07:18:06.077Z,58.70
2018-05-23T07:20:34.369Z,52.43
2018-05-23T07:23:02.646Z,56.13
2018-05-23T07:25:30.922Z,48.00
2018-05-23T07:27:59.227Z,49.17
2018-05-23T07:30:27.509Z,49.40
2018-05-23T07:32:55.817Z,47.93
2018-05-23T07:35:24.114Z,45.80
2018-05-23T07:37:52.398Z,50.30
2018-05-23T07:40:20.694Z,50.27
2018-05-23T07:42:48.982Z,56.60
2018-05-23T07:45:17.264Z,55.77
2018-05-23T07:47:45.546Z,54.27
2018-05-23T07:50:13.842Z,55.80
2018-05-23T07:52:42.165Z,52.67
2018-05-23T07:55:10.459Z,58.30
2018-05-23T07:57:38.770Z,51.20
2018-05-23T08:00:07.142Z,59.70
2018-05-23T08:02:35.446Z,53.67
2018-05-23T08:05:03.745Z,46.20
2018-05-23T08:07:32.042Z,57.33
2018-05-23T08:10:00.344Z,56.83
2018-05-23T08:12:28.659Z,53.97
2018-05-23T08:14:56.951Z,46.37
2018-05-23T08:17:25.261Z,41.37
2018-05-23T08:19:53.554Z,48.70
2018-05-23T08:22:21.881Z,40.37
2018-05-23T08:24:50.138Z,37.70
2018-05-23T08:27:18.447Z,40.70
2018-05-23T08:29:46.820Z,42.37
2018-05-23T08:32:15.023Z,43.20
2018-05-23T08:34:43.330Z,38.47
2018-05-23T08:37:11.618Z,37.87
2018-05-23T08:39:39.910Z,38.13
2018-05-23T08:42:08.197Z,38.17
2018-05-23T08:44:36.474Z,45.40
2018-05-23T08:47:04.776Z,38.53
2018-05-23T08:49:33.054Z,39.90
2018-05-23T08:52:01.995Z,36.50
2018-05-23T08:54:30.308Z,36.23
2018-05-23T08:56:58.578Z,37.30
2018-05-23T08:59:26.877Z,36.33
2018-05-23T09:01:55.156Z,30.73
2018-05-23T09:04:23.439Z,38.50
2018-05-23T09:06:52.410Z,35.33
2018-05-23T09:09:20.750Z,35.47
2018-05-23T09:11:49.030Z,27.97
2018-05-23T09:14:17.316Z,29.17
2018-05-23T09:16:45.597Z,25.93
2018-05-23T09:19:13.888Z,31.20
2018-05-23T09:21:42.175Z,25.40
2018-05-23T09:24:10.462Z,28.53
2018-05-23T09:26:38.746Z,23.13
2018-05-23T09:29:07.022Z,22.90
2018-05-23T09:31:35.364Z,23.60
2018-05-23T09:34:03.607Z,26.73
2018-05-23T09:36:31.917Z,22.90
2018-05-23T09:39:00.199Z,21.33
2018-05-23T09:41:28.482Z,22.40
2018-05-23T09:43:56.778Z,24.27
2018-05-23T09:46:25.058Z,21.67
2018-05-23T09:48:53.366Z,20.83
2018-05-23T09:51:21.678Z,20.83
2018-05-23T09:53:49.965Z,17.47
2018-05-23T09:56:18.260Z,16.20
2018-05-23T09:58:46.538Z,18.63
2018-05-23T10:01:14.839Z,14.33
2018-05-23T10:03:43.113Z,12.97
2018-05-23T10:06:11.406Z,13.37
2018-05-23T10:08:39.708Z,13.27
2018-05-23T10:11:07.986Z,12.90
2018-05-23T10:13:36.294Z,11.87
2018-05-23T10:16:04.580Z,13.30
2018-05-23T10:18:33.633Z,11.37
2018-05-23T10:21:01.931Z,12.73
2018-05-23T10:23:30.194Z,8.57
2018-05-23T10:25:58.510Z,12.40
2018-05-23T10:28:26.784Z,9.53
2018-05-23T10:30:55.065Z,10.47
2018-05-23T10:33:23.445Z,12.20
2018-05-23T10:35:51.650Z,10.53
2018-05-23T10:38:19.942Z,9.43
2018-05-23T10:40:48.262Z,9.40
2018-05-23T10:43:16.541Z,5.90
2018-05-23T10:45:44.818Z,7.73
2018-05-23T10:48:13.090Z,7.00
2018-05-23T10:50:41.390Z,7.77
2018-05-23T10:53:09.666Z,7.17
2018-05-23T10:55:37.954Z,9.73
2018-05-23T10:58:06.247Z,8.33
2018-05-23T11:00:34.531Z,8.83
2018-05-23T11:03:02.923Z,8.13
2018-05-23T11:05:31.104Z,7.43
2018-05-23T11:07:59.370Z,8.83
2018-05-23T11:10:27.669Z,7.83
2018-05-23T11:12:55.942Z,9.73
2018-05-23T11:15:24.240Z,11.07
2018-05-23T11:17:52.529Z,10.37
2018-05-23T11:20:20.803Z,8.13
2018-05-23T11:22:49.814Z,9.03
2018-05-23T11:25:18.090Z,11.63
2018-05-23T11:27:46.383Z,9.70
2018-05-23T11:30:14.664Z,9.90
2018-05-23T11:32:42.954Z,10.50
2018-05-23T11:35:11.246Z,13.03
2018-05-23T11:37:39.517Z,7.80
2018-05-23T11:40:07.810Z,9.00
2018-05-23T11:42:35.379Z,9.43
2018-05-23T11:45:03.410Z,9.90
2018-05-23T11:47:31.694Z,7.53
2018-05-23T11:50:00.006Z,7.83
2018-05-23T11:52:28.302Z,11.43
2018-05-23T11:54:56.570Z,6.80
2018-05-23T11:57:24.880Z,8.23
2018-05-23T11:59:53.169Z,9.27
2018-05-23T12:02:21.446Z,8.33
2018-05-23T12:04:49.861Z,8.30
2018-05-23T12:07:18.131Z,7.23
2018-05-23T12:09:47.268Z,7.23
2018-05-23T12:12:15.563Z,7.03
2018-05-23T12:14:43.845Z,10.97
2018-05-23T12:17:12.198Z,8.97
2018-05-23T12:19:40.497Z,8.13
2018-05-23T12:22:08.762Z,8.97
2018-05-23T12:24:37.038Z,7.60
2018-05-23T12:27:05.361Z,8.30
2018-05-23T12:29:33.651Z,7.40
2018-05-23T12:32:01.930Z,7.70
2018-05-23T12:34:30.222Z,7.17
2018-05-23T12:36:58.524Z,8.80
2018-05-23T12:39:26.779Z,6.60
2018-05-23T12:41:55.054Z,11.20
2018-05-23T12:44:23.338Z,8.53
2018-05-23T12:46:51.609Z,6.27
2018-05-23T12:49:19.902Z,5.23
2018-05-23T12:51:48.174Z,6.63
2018-05-23T12:54:16.447Z,7.37
2018-05-23T12:56:44.726Z,6.63
2018-05-23T12:59:13.001Z,6.10
2018-05-23T13:01:41.290Z,8.07
2018-05-23T13:04:09.566Z,10.40
2018-05-23T13:06:37.842Z,8.97
2018-05-23T13:09:07.837Z,6.33
2018-05-23T13:11:36.138Z,10.10
2018-05-23T13:14:04.438Z,10.33
2018-05-23T13:16:32.716Z,8.00
2018-05-23T13:19:01.078Z,6.63
2018-05-23T13:21:29.280Z,7.90
2018-05-23T13:23:57.574Z,7.33
2018-05-23T13:26:25.858Z,9.63
2018-05-23T13:28:54.139Z,9.33
2018-05-23T13:31:23.198Z,9.70
2018-05-23T13:33:51.481Z,8.43
2018-05-23T13:36:19.754Z,7.67
2018-05-23T13:38:49.220Z,7.13
2018-05-23T13:41:17.440Z,8.07
2018-05-23T13:43:45.709Z,11.40
2018-05-23T13:46:13.986Z,7.43
2018-05-23T13:48:42.258Z,8.83
2018-05-23T13:51:10.551Z,10.80
2018-05-23T13:53:38.823Z,8.37
2018-05-23T13:56:07.090Z,9.63
2018-05-23T13:58:35.404Z,10.47
2018-05-23T14:01:03.684Z,8.77
2018-05-23T14:03:31.966Z,8.50
2018-05-23T14:06:00.234Z,7.97
2018-05-23T14:08:39.395Z,6.70
2018-05-23T14:11:07.681Z,10.40
2018-05-23T14:13:35.945Z,8.03
2018-05-23T14:16:04.222Z,9.20
2018-05-23T14:18:32.494Z,8.03
2018-05-23T14:21:01.058Z,12.63
2018-05-23T14:23:29.329Z,9.53
2018-05-23T14:25:57.624Z,13.90
2018-05-23T14:28:26.843Z,9.47
2018-05-23T14:30:55.028Z,12.87
2018-05-23T14:33:23.326Z,10.33
2018-05-23T14:35:51.643Z,9.20
2018-05-23T14:38:19.894Z,10.30
2018-05-23T14:40:48.186Z,8.13
2018-05-23T14:43:16.466Z,10.37
2018-05-23T14:45:45.077Z,11.47
2018-05-23T14:48:13.345Z,9.67
2018-05-23T14:50:41.618Z,9.97
2018-05-23T14:53:09.898Z,10.90
2018-05-23T14:55:38.198Z,10.80
2018-05-23T14:58:06.481Z,9.63
2018-05-23T15:00:34.758Z,11.83
2018-05-23T15:03:03.400Z,11.73
2018-05-23T15:05:31.670Z,11.20
2018-05-23T15:07:59.946Z,11.87
2018-05-23T15:10:28.843Z,8.63
2018-05-23T15:12:57.109Z,8.53
2018-05-23T15:15:25.458Z,11.67
2018-05-23T15:17:53.742Z,10.33
2018-05-23T15:20:22.014Z,9.73
2018-05-23T15:22:50.310Z,11.87
2018-05-23T15:25:18.594Z,15.97
2018-05-23T15:27:46.874Z,9.80
2018-05-23T15:30:15.163Z,12.53
2018-05-23T15:32:43.450Z,13.33
2018-05-23T15:35:11.820Z,7.87
2018-05-23T15:37:40.123Z,9.17
2018-05-23T15:40:08.388Z,9.60
2018-05-23T15:42:36.672Z,8.63
2018-05-23T15:45:04.954Z,11.27
2018-05-23T15:47:33.234Z,9.90
2018-05-23T15:50:01.511Z,11.60
2018-05-23T15:52:29.781Z,9.90
2018-05-23T15:54:58.058Z,13.50
2018-05-23T15:57:26.335Z,11.30
2018-05-23T15:59:54.633Z,12.80
2018-05-23T16:02:22.901Z,11.37
2018-05-23T16:04:51.201Z,9.03
2018-05-23T16:07:19.478Z,9.77
2018-05-23T16:09:47.755Z,11.63
2018-05-23T16:12:16.033Z,9.57
2018-05-23T16:14:44.313Z,13.87
2018-05-23T16:17:12.582Z,8.97
2018-05-23T16:19:40.872Z,13.00
2018-05-23T16:22:09.150Z,11.60
2018-05-23T16:24:37.512Z,9.63
2018-05-23T16:27:05.722Z,9.93
2018-05-23T16:29:34.002Z,12.13
2018-05-23T16:32:02.289Z,11.03
2018-05-23T16:34:30.562Z,9.80
2018-05-23T16:36:58.853Z,9.37
2018-05-23T16:39:27.122Z,13.67
2018-05-23T16:41:55.390Z,9.83
2018-05-23T16:44:23.761Z,7.80
2018-05-23T16:46:51.995Z,12.40
2018-05-23T16:49:21.322Z,13.57
2018-05-23T16:51:49.629Z,8.47
2018-05-23T16:54:17.953Z,7.47
2018-05-23T16:56:46.251Z,13.70
2018-05-23T16:59:14.523Z,8.83
2018-05-23T17:01:42.822Z,13.27
2018-05-23T17:04:11.108Z,9.33
2018-05-23T17:06:39.393Z,7.37
2018-05-23T17:09:08.650Z,9.00
2018-05-23T17:11:36.924Z,9.80
2018-05-23T17:14:05.226Z,8.60
2018-05-23T17:16:33.506Z,7.00
2018-05-23T17:19:01.779Z,9.37
2018-05-23T17:21:30.054Z,8.40
2018-05-23T17:23:58.419Z,7.17
2018-05-23T17:26:26.670Z,9.33
2018-05-23T17:28:54.941Z,7.43
2018-05-23T17:31:23.225Z,9.73
2018-05-23T17:33:51.506Z,7.17
2018-05-23T17:36:19.782Z,7.40
2018-05-23T17:38:48.070Z,7.97
2018-05-23T17:41:16.603Z,9.97
2018-05-23T17:43:44.871Z,10.80
2018-05-23T17:46:13.161Z,6.80
2018-05-23T17:48:41.429Z,7.87
2018-05-23T17:51:09.741Z,7.20
2018-05-23T17:53:38.022Z,10.27
2018-05-23T17:56:06.305Z,11.00
2018-05-23T17:58:34.601Z,8.47
2018-05-23T18:01:02.858Z,9.30
2018-05-23T18:03:31.145Z,7.77
2018-05-23T18:05:59.443Z,10.10
2018-05-23T18:08:27.694Z,6.87
2018-05-23T18:10:55.988Z,8.00
2018-05-23T18:13:24.268Z,9.37
2018-05-23T18:15:52.581Z,7.93
2018-05-23T18:18:22.132Z,7.70
2018-05-23T18:20:50.422Z,10.30
2018-05-23T18:23:18.838Z,9.73
2018-05-23T18:25:47.070Z,11.13
2018-05-23T18:28:15.444Z,6.47
2018-05-23T18:30:43.642Z,8.23
2018-05-23T18:33:11.919Z,8.30
2018-05-23T18:35:40.210Z,7.93
2018-05-23T18:38:08.487Z,7.47
2018-05-23T18:40:36.778Z,7.93
2018-05-23T18:43:05.042Z,7.40
2018-05-23T18:45:33.310Z,8.50
2018-05-23T18:48:01.609Z,8.40
2018-05-23T18:50:29.909Z,5.33
2018-05-23T18:52:58.197Z,10.43
2018-05-23T18:55:26.469Z,8.87
2018-05-23T18:57:54.760Z,12.30
2018-05-23T19:00:23.061Z,6.27
2018-05-23T19:02:51.326Z,6.33
2018-05-23T19:05:19.676Z,9.33
2018-05-23T19:07:47.905Z,7.00
2018-05-23T19:10:16.178Z,9.63
2018-05-23T19:12:44.466Z,7.73
2018-05-23T19:15:12.739Z,8.23
2018-05-23T19:17:41.080Z,7.40
2018-05-23T19:20:09.373Z,8.23
2018-05-23T19:22:37.615Z,10.27
2018-05-23T19:25:05.901Z,8.57
2018-05-23T19:27:34.168Z,7.83
2018-05-23T19:30:02.457Z,13.03
2018-05-23T19:32:30.726Z,9.93
2018-05-23T19:34:58.998Z,7.87
2018-05-23T19:37:27.289Z,12.53
2018-05-23T19:39:55.562Z,7.33
2018-05-23T19:42:24.393Z,10.57
2018-05-23T19:44:52.669Z,9.07
2018-05-23T19:47:21.006Z,10.53
2018-05-23T19:49:49.242Z,8.57
2018-05-23T19:52:17.515Z,6.47
2018-05-23T19:54:45.790Z,7.57
2018-05-23T19:57:14.063Z,6.80
2018-05-23T19:59:42.335Z,7.50
2018-05-23T20:02:10.631Z,6.13
2018-05-23T20:04:38.885Z,9.23
2018-05-23T20:07:07.168Z,5.37
2018-05-23T20:09:35.434Z,5.77
2018-05-23T20:12:03.702Z,9.20
2018-05-23T20:14:32.073Z,5.60
2018-05-23T20:17:00.259Z,6.23
2018-05-23T20:19:28.553Z,8.40
2018-05-23T20:21:56.899Z,8.63
2018-05-23T20:24:25.090Z,9.40
2018-05-23T20:26:53.379Z,7.63
2018-05-23T20:29:21.671Z,8.93
2018-05-23T20:31:49.978Z,7.17
2018-05-23T20:34:18.254Z,8.30
2018-05-23T20:36:46.519Z,8.80
2018-05-23T20:39:14.798Z,9.17
2018-05-23T20:41:43.072Z,9.03
2018-05-23T20:46:48.662Z,8.43
2018-05-23T20:49:16.958Z,8.47
2018-05-23T20:51:45.233Z,9.70
2018-05-23T20:54:13.513Z,14.00
2018-05-23T20:56:41.797Z,11.70
2018-05-23T20:59:10.078Z,8.37
2018-05-23T21:01:38.433Z,12.60
2018-05-23T21:04:06.706Z,12.17
2018-05-23T21:06:34.982Z,8.03
2018-05-23T21:09:03.262Z,9.23
2018-05-23T21:11:37.129Z,9.17
2018-05-23T21:14:05.400Z,12.07
2018-05-23T21:16:33.966Z,8.60
2018-05-23T21:19:02.239Z,11.57
2018-05-23T21:21:30.522Z,10.87
2018-05-23T21:23:58.795Z,8.20
2018-05-23T21:26:27.086Z,11.73
2018-05-23T21:28:55.355Z,7.53
2018-05-23T21:31:23.617Z,9.30
2018-05-23T21:33:51.897Z,10.87
2018-05-23T21:36:20.254Z,9.10
2018-05-23T21:38:48.554Z,9.67
2018-05-23T21:41:16.830Z,12.90
2018-05-23T21:43:45.102Z,11.37
2018-05-23T21:46:13.387Z,9.33
2018-05-23T21:48:41.658Z,8.87
2018-05-23T21:51:09.958Z,9.73
2018-05-23T21:53:38.226Z,12.33
2018-05-23T21:56:06.505Z,8.80
2018-05-23T21:58:34.781Z,14.90
2018-05-23T22:01:03.054Z,11.80
2018-05-23T22:03:31.342Z,12.00
2018-05-23T22:05:59.609Z,9.63
2018-05-23T22:08:27.881Z,10.70
2018-05-23T22:10:56.153Z,9.57
2018-05-23T22:13:24.529Z,12.20
2018-05-23T22:15:52.818Z,18.03
2018-05-23T22:18:21.181Z,12.07
2018-05-23T22:20:49.353Z,9.93
2018-05-23T22:23:17.638Z,15.17
2018-05-23T22:25:45.910Z,9.93
2018-05-23T22:28:15.026Z,10.23
2018-05-23T22:30:43.333Z,10.77
2018-05-23T22:33:11.570Z,10.23
2018-05-23T22:35:39.853Z,9.90
2018-05-23T22:38:08.118Z,8.33
2018-05-23T22:40:36.402Z,12.37
2018-05-23T22:43:04.674Z,11.00
2018-05-23T22:45:32.947Z,9.23
2018-05-23T22:48:01.243Z,10.07
2018-05-23T22:50:29.509Z,12.67
2018-05-23T22:52:57.797Z,10.47
2018-05-23T22:55:26.070Z,10.97
2018-05-23T22:57:54.346Z,11.17
2018-05-23T23:00:22.642Z,11.80
2018-05-23T23:02:50.631Z,8.93
2018-05-23T23:05:18.939Z,12.50
2018-05-23T23:07:47.214Z,11.43
2018-05-23T23:10:15.489Z,10.90
2018-05-23T23:12:43.793Z,10.60
2018-05-23T23:15:12.099Z,8.87
2018-05-23T23:17:41.238Z,11.07
2018-05-23T23:20:09.521Z,11.00
2018-05-23T23:22:38.586Z,8.50
2018-05-23T23:25:06.870Z,13.87
2018-05-23T23:27:35.142Z,7.70
2018-05-23T23:30:03.433Z,10.37
2018-05-23T23:32:31.711Z,10.10
2018-05-23T23:34:59.990Z,11.57
2018-05-23T23:37:28.276Z,11.17
2018-05-23T23:39:56.544Z,9.43
2018-05-23T23:42:24.834Z,8.40
2018-05-23T23:44:53.115Z,9.63
2018-05-23T23:47:21.382Z,9.63
2018-05-23T23:49:49.658Z,9.37
2018-05-23T23:52:18.238Z,10.23
2018-05-23T23:54:46.515Z,10.43
2018-05-23T23:57:14.791Z,13.17
2018-05-23T23:59:45.002Z,10.37
